Auburn, Kentucky
Current Conditions -  °F | °C
As of 10:53 AM on Wednesday 26 Nov 2014 (Local Time) from KBWG Reporting Station
Clear Clear  
Wind Chill:   Ceiling: Unl
Heat Index:   Visibility: 10mi
Dew Point: -2°   Wind: 3mph
Humidity: 63%   Direction: NA
Pressure: 30.14"   Gusts: NA
Location:  36.86°N, 86.71°W
Report Text: KBWG 261653Z AUTO VRB03KT 10SM CLR 04/M02 A3014 RMK AO2 SLP208 T00441022
Loading
Personal Weather Stations






























Interactive Weather Map New forecast layout! Learn more

10-Day Weather Forecast

Advertisements
Track Severe Weather on mobile